sensor_id;sensor_type;location;lat;lon;timestamp;P1;durP1;ratioP1;P2;durP2;ratioP2
49139;SDS011;34959;49.310;8.646;2022-11-25T00:01:10;4.03;;;1.88;;
49139;SDS011;34959;49.310;8.646;2022-11-25T00:03:37;4.28;;;1.65;;
49139;SDS011;34959;49.310;8.646;2022-11-25T00:06:13;2.55;;;1.48;;
49139;SDS011;34959;49.310;8.646;2022-11-25T00:08:43;3.03;;;1.63;;
49139;SDS011;34959;49.310;8.646;2022-11-25T00:11:10;2.85;;;1.48;;
49139;SDS011;34959;49.310;8.646;2022-11-25T00:13:36;2.95;;;1.65;;
49139;SDS011;34959;49.310;8.646;2022-11-25T00:16:03;3.58;;;1.50;;
49139;SDS011;34959;49.310;8.646;2022-11-25T00:18:30;3.28;;;1.50;;
49139;SDS011;34959;49.310;8.646;2022-11-25T00:20:56;4.38;;;1.48;;
49139;SDS011;34959;49.310;8.646;2022-11-25T00:23:22;3.67;;;1.40;;
49139;SDS011;34959;49.310;8.646;2022-11-25T00:25:47;4.68;;;1.40;;
49139;SDS011;34959;49.310;8.646;2022-11-25T00:28:13;4.03;;;1.40;;
49139;SDS011;34959;49.310;8.646;2022-11-25T00:30:41;3.33;;;1.33;;
49139;SDS011;34959;49.310;8.646;2022-11-25T00:33:06;2.95;;;1.65;;
49139;SDS011;34959;49.310;8.646;2022-11-25T00:35:33;3.42;;;1.30;;
49139;SDS011;34959;49.310;8.646;2022-11-25T00:37:59;4.32;;;1.40;;
49139;SDS011;34959;49.310;8.646;2022-11-25T00:40:24;1.95;;;1.23;;
49139;SDS011;34959;49.310;8.646;2022-11-25T00:42:50;2.08;;;1.27;;
49139;SDS011;34959;49.310;8.646;2022-11-25T00:45:35;3.70;;;1.25;;
49139;SDS011;34959;49.310;8.646;2022-11-25T00:48:00;3.75;;;1.30;;
49139;SDS011;34959;49.310;8.646;2022-11-25T00:50:26;2.85;;;1.38;;
49139;SDS011;34959;49.310;8.646;2022-11-25T00:52:54;3.05;;;1.40;;
49139;SDS011;34959;49.310;8.646;2022-11-25T00:55:19;5.55;;;1.60;;
49139;SDS011;34959;49.310;8.646;2022-11-25T00:57:45;8.02;;;2.00;;
49139;SDS011;34959;49.310;8.646;2022-11-25T01:00:10;5.90;;;1.60;;
49139;SDS011;34959;49.310;8.646;2022-11-25T01:02:36;3.15;;;1.40;;
49139;SDS011;34959;49.310;8.646;2022-11-25T01:05:01;5.13;;;1.70;;
49139;SDS011;34959;49.310;8.646;2022-11-25T01:07:27;6.32;;;1.65;;
49139;SDS011;34959;49.310;8.646;2022-11-25T01:09:52;5.82;;;1.90;;
49139;SDS011;34959;49.310;8.646;2022-11-25T01:12:18;4.50;;;1.58;;
49139;SDS011;34959;49.310;8.646;2022-11-25T01:14:43;4.97;;;1.77;;
49139;SDS011;34959;49.310;8.646;2022-11-25T01:17:09;3.40;;;1.77;;
49139;SDS011;34959;49.310;8.646;2022-11-25T01:19:34;7.68;;;1.85;;
49139;SDS011;34959;49.310;8.646;2022-11-25T01:22:04;5.22;;;1.65;;
49139;SDS011;34959;49.310;8.646;2022-11-25T01:24:30;4.15;;;1.88;;
49139;SDS011;34959;49.310;8.646;2022-11-25T01:26:56;4.47;;;1.50;;
49139;SDS011;34959;49.310;8.646;2022-11-25T01:29:21;4.43;;;1.58;;
49139;SDS011;34959;49.310;8.646;2022-11-25T01:31:47;5.57;;;1.73;;
49139;SDS011;34959;49.310;8.646;2022-11-25T01:34:22;3.30;;;1.40;;
49139;SDS011;34959;49.310;8.646;2022-11-25T01:36:48;2.75;;;1.35;;
49139;SDS011;34959;49.310;8.646;2022-11-25T01:39:18;3.35;;;1.45;;
49139;SDS011;34959;49.310;8.646;2022-11-25T01:41:46;3.53;;;1.50;;
49139;SDS011;34959;49.310;8.646;2022-11-25T01:52:03;2.45;;;1.42;;
49139;SDS011;34959;49.310;8.646;2022-11-25T01:54:35;5.05;;;1.77;;
49139;SDS011;34959;49.310;8.646;2022-11-25T01:57:05;2.22;;;1.40;;
49139;SDS011;34959;49.310;8.646;2022-11-25T01:59:34;3.03;;;1.48;;
49139;SDS011;34959;49.310;8.646;2022-11-25T02:02:03;3.22;;;1.60;;
49139;SDS011;34959;49.310;8.646;2022-11-25T02:04:30;2.85;;;1.40;;
49139;SDS011;34959;49.310;8.646;2022-11-25T02:06:59;3.05;;;1.38;;
49139;SDS011;34959;49.310;8.646;2022-11-25T02:09:28;3.88;;;1.80;;
49139;SDS011;34959;49.310;8.646;2022-11-25T02:11:54;2.45;;;1.52;;
49139;SDS011;34959;49.310;8.646;2022-11-25T02:14:20;4.03;;;1.60;;
49139;SDS011;34959;49.310;8.646;2022-11-25T02:16:46;3.53;;;1.63;;
49139;SDS011;34959;49.310;8.646;2022-11-25T02:19:19;3.25;;;1.60;;
49139;SDS011;34959;49.310;8.646;2022-11-25T02:21:53;6.32;;;2.03;;
49139;SDS011;34959;49.310;8.646;2022-11-25T02:24:33;4.13;;;1.45;;
49139;SDS011;34959;49.310;8.646;2022-11-25T02:27:10;3.45;;;1.40;;
49139;SDS011;34959;49.310;8.646;2022-11-25T02:29:36;3.22;;;1.60;;
49139;SDS011;34959;49.310;8.646;2022-11-25T02:32:01;4.05;;;1.73;;
49139;SDS011;34959;49.310;8.646;2022-11-25T02:34:27;3.75;;;1.63;;
49139;SDS011;34959;49.310;8.646;2022-11-25T02:36:52;3.05;;;1.52;;
49139;SDS011;34959;49.310;8.646;2022-11-25T02:39:18;3.92;;;1.50;;
49139;SDS011;34959;49.310;8.646;2022-11-25T02:41:45;4.00;;;1.50;;
49139;SDS011;34959;49.310;8.646;2022-11-25T02:44:13;2.10;;;1.48;;
49139;SDS011;34959;49.310;8.646;2022-11-25T02:46:39;2.53;;;1.30;;
49139;SDS011;34959;49.310;8.646;2022-11-25T02:49:05;2.60;;;1.50;;
49139;SDS011;34959;49.310;8.646;2022-11-25T02:51:31;2.85;;;1.30;;
49139;SDS011;34959;49.310;8.646;2022-11-25T02:53:57;2.70;;;1.40;;
49139;SDS011;34959;49.310;8.646;2022-11-25T02:56:25;3.90;;;1.40;;
49139;SDS011;34959;49.310;8.646;2022-11-25T02:58:52;2.47;;;1.40;;
49139;SDS011;34959;49.310;8.646;2022-11-25T03:01:18;9.02;;;1.70;;
49139;SDS011;34959;49.310;8.646;2022-11-25T03:03:43;3.25;;;1.63;;
49139;SDS011;34959;49.310;8.646;2022-11-25T03:06:09;2.53;;;1.58;;
49139;SDS011;34959;49.310;8.646;2022-11-25T03:08:34;2.45;;;1.58;;
49139;SDS011;34959;49.310;8.646;2022-11-25T03:11:00;2.55;;;1.50;;
49139;SDS011;34959;49.310;8.646;2022-11-25T03:13:26;2.33;;;1.55;;
49139;SDS011;34959;49.310;8.646;2022-11-25T03:15:52;2.83;;;1.55;;
49139;SDS011;34959;49.310;8.646;2022-11-25T03:18:17;2.95;;;1.52;;
49139;SDS011;34959;49.310;8.646;2022-11-25T03:20:43;4.10;;;1.50;;
49139;SDS011;34959;49.310;8.646;2022-11-25T03:23:08;3.35;;;1.30;;
49139;SDS011;34959;49.310;8.646;2022-11-25T03:25:34;3.42;;;1.60;;
49139;SDS011;34959;49.310;8.646;2022-11-25T03:28:00;3.15;;;1.55;;
49139;SDS011;34959;49.310;8.646;2022-11-25T03:30:26;3.88;;;1.50;;
49139;SDS011;34959;49.310;8.646;2022-11-25T03:32:53;3.15;;;1.45;;
49139;SDS011;34959;49.310;8.646;2022-11-25T03:35:19;5.60;;;1.90;;
49139;SDS011;34959;49.310;8.646;2022-11-25T03:37:45;4.10;;;1.65;;
49139;SDS011;34959;49.310;8.646;2022-11-25T03:40:11;2.53;;;1.30;;
49139;SDS011;34959;49.310;8.646;2022-11-25T03:42:37;4.57;;;1.52;;
49139;SDS011;34959;49.310;8.646;2022-11-25T03:45:03;3.38;;;1.67;;
49139;SDS011;34959;49.310;8.646;2022-11-25T03:47:30;2.97;;;1.58;;
49139;SDS011;34959;49.310;8.646;2022-11-25T03:49:56;2.20;;;1.50;;
49139;SDS011;34959;49.310;8.646;2022-11-25T03:52:21;2.60;;;1.50;;
49139;SDS011;34959;49.310;8.646;2022-11-25T03:54:47;3.17;;;1.35;;
49139;SDS011;34959;49.310;8.646;2022-11-25T03:57:12;3.40;;;1.60;;
49139;SDS011;34959;49.310;8.646;2022-11-25T03:59:38;2.60;;;1.33;;
49139;SDS011;34959;49.310;8.646;2022-11-25T04:02:03;4.00;;;1.45;;
49139;SDS011;34959;49.310;8.646;2022-11-25T04:04:28;2.15;;;1.27;;
49139;SDS011;34959;49.310;8.646;2022-11-25T04:06:54;3.08;;;1.45;;
49139;SDS011;34959;49.310;8.646;2022-11-25T04:09:19;2.47;;;1.48;;
49139;SDS011;34959;49.310;8.646;2022-11-25T04:11:45;3.13;;;1.60;;
49139;SDS011;34959;49.310;8.646;2022-11-25T04:14:29;1.77;;;1.10;;
49139;SDS011;34959;49.310;8.646;2022-11-25T04:16:55;2.53;;;1.50;;
49139;SDS011;34959;49.310;8.646;2022-11-25T04:19:20;2.60;;;1.30;;
49139;SDS011;34959;49.310;8.646;2022-11-25T04:21:45;2.63;;;1.35;;
49139;SDS011;34959;49.310;8.646;2022-11-25T04:24:11;4.57;;;1.30;;
49139;SDS011;34959;49.310;8.646;2022-11-25T04:26:36;2.65;;;1.50;;
49139;SDS011;34959;49.310;8.646;2022-11-25T04:29:02;2.75;;;1.42;;
49139;SDS011;34959;49.310;8.646;2022-11-25T04:31:27;2.15;;;1.30;;
49139;SDS011;34959;49.310;8.646;2022-11-25T04:33:53;4.13;;;1.85;;
49139;SDS011;34959;49.310;8.646;2022-11-25T04:36:18;2.17;;;1.38;;
49139;SDS011;34959;49.310;8.646;2022-11-25T04:38:43;8.63;;;1.85;;
49139;SDS011;34959;49.310;8.646;2022-11-25T04:41:09;2.90;;;1.58;;
49139;SDS011;34959;49.310;8.646;2022-11-25T04:43:34;2.63;;;1.20;;
49139;SDS011;34959;49.310;8.646;2022-11-25T04:46:00;2.38;;;1.15;;
49139;SDS011;34959;49.310;8.646;2022-11-25T04:48:25;2.15;;;1.20;;
49139;SDS011;34959;49.310;8.646;2022-11-25T04:50:51;2.13;;;1.10;;
49139;SDS011;34959;49.310;8.646;2022-11-25T04:53:16;1.70;;;1.10;;
49139;SDS011;34959;49.310;8.646;2022-11-25T04:55:42;2.92;;;1.40;;
49139;SDS011;34959;49.310;8.646;2022-11-25T04:58:08;1.80;;;0.90;;
49139;SDS011;34959;49.310;8.646;2022-11-25T05:00:34;2.33;;;1.33;;
49139;SDS011;34959;49.310;8.646;2022-11-25T05:03:00;3.00;;;1.23;;
49139;SDS011;34959;49.310;8.646;2022-11-25T05:05:25;2.03;;;1.20;;
49139;SDS011;34959;49.310;8.646;2022-11-25T05:07:50;3.20;;;1.33;;
49139;SDS011;34959;49.310;8.646;2022-11-25T05:10:16;1.83;;;1.15;;
49139;SDS011;34959;49.310;8.646;2022-11-25T05:12:41;3.45;;;1.23;;
49139;SDS011;34959;49.310;8.646;2022-11-25T05:15:07;2.55;;;1.40;;
49139;SDS011;34959;49.310;8.646;2022-11-25T05:17:33;2.03;;;1.17;;
49139;SDS011;34959;49.310;8.646;2022-11-25T05:19:59;2.33;;;1.13;;
49139;SDS011;34959;49.310;8.646;2022-11-25T05:22:25;2.20;;;1.08;;
49139;SDS011;34959;49.310;8.646;2022-11-25T05:24:55;1.75;;;1.10;;
49139;SDS011;34959;49.310;8.646;2022-11-25T05:27:21;2.25;;;1.15;;
49139;SDS011;34959;49.310;8.646;2022-11-25T05:29:47;5.60;;;1.40;;
49139;SDS011;34959;49.310;8.646;2022-11-25T05:32:13;5.32;;;1.60;;
49139;SDS011;34959;49.310;8.646;2022-11-25T05:34:39;2.05;;;1.10;;
49139;SDS011;34959;49.310;8.646;2022-11-25T05:37:05;4.20;;;1.23;;
49139;SDS011;34959;49.310;8.646;2022-11-25T05:39:31;3.33;;;1.38;;
49139;SDS011;34959;49.310;8.646;2022-11-25T05:41:56;2.70;;;1.20;;
49139;SDS011;34959;49.310;8.646;2022-11-25T05:44:22;3.70;;;1.23;;
49139;SDS011;34959;49.310;8.646;2022-11-25T05:46:47;4.60;;;1.10;;
49139;SDS011;34959;49.310;8.646;2022-11-25T05:49:13;5.70;;;1.52;;
49139;SDS011;34959;49.310;8.646;2022-11-25T05:51:39;4.72;;;1.50;;
49139;SDS011;34959;49.310;8.646;2022-11-25T05:54:05;4.53;;;1.33;;
49139;SDS011;34959;49.310;8.646;2022-11-25T05:56:30;2.22;;;1.15;;
49139;SDS011;34959;49.310;8.646;2022-11-25T05:58:57;3.58;;;1.25;;
49139;SDS011;34959;49.310;8.646;2022-11-25T06:01:23;2.25;;;1.15;;
49139;SDS011;34959;49.310;8.646;2022-11-25T06:03:48;3.33;;;1.73;;
49139;SDS011;34959;49.310;8.646;2022-11-25T06:06:14;3.95;;;1.30;;
49139;SDS011;34959;49.310;8.646;2022-11-25T06:08:39;3.65;;;1.55;;
49139;SDS011;34959;49.310;8.646;2022-11-25T06:11:05;2.03;;;1.17;;
49139;SDS011;34959;49.310;8.646;2022-11-25T06:13:32;2.97;;;1.13;;
49139;SDS011;34959;49.310;8.646;2022-11-25T06:15:57;2.95;;;1.60;;
49139;SDS011;34959;49.310;8.646;2022-11-25T06:18:23;1.88;;;1.00;;
49139;SDS011;34959;49.310;8.646;2022-11-25T06:20:55;2.85;;;1.40;;
49139;SDS011;34959;49.310;8.646;2022-11-25T06:23:22;3.20;;;1.20;;
49139;SDS011;34959;49.310;8.646;2022-11-25T06:25:48;3.75;;;1.33;;
49139;SDS011;34959;49.310;8.646;2022-11-25T06:28:13;2.65;;;1.30;;
49139;SDS011;34959;49.310;8.646;2022-11-25T06:30:39;3.13;;;1.70;;
49139;SDS011;34959;49.310;8.646;2022-11-25T06:33:04;1.90;;;1.20;;
49139;SDS011;34959;49.310;8.646;2022-11-25T06:35:29;3.00;;;1.40;;
49139;SDS011;34959;49.310;8.646;2022-11-25T06:37:56;1.90;;;1.08;;
49139;SDS011;34959;49.310;8.646;2022-11-25T06:40:25;2.53;;;1.15;;
49139;SDS011;34959;49.310;8.646;2022-11-25T06:42:50;2.08;;;1.20;;
49139;SDS011;34959;49.310;8.646;2022-11-25T06:45:16;2.58;;;1.40;;
49139;SDS011;34959;49.310;8.646;2022-11-25T06:47:41;2.70;;;1.40;;
49139;SDS011;34959;49.310;8.646;2022-11-25T06:50:07;3.38;;;1.20;;
49139;SDS011;34959;49.310;8.646;2022-11-25T06:52:33;2.97;;;1.23;;
49139;SDS011;34959;49.310;8.646;2022-11-25T06:54:58;4.20;;;1.23;;
49139;SDS011;34959;49.310;8.646;2022-11-25T06:57:24;1.70;;;1.10;;
49139;SDS011;34959;49.310;8.646;2022-11-25T06:59:49;4.00;;;1.38;;
49139;SDS011;34959;49.310;8.646;2022-11-25T07:02:15;2.78;;;1.13;;
49139;SDS011;34959;49.310;8.646;2022-11-25T07:04:40;2.92;;;1.48;;
49139;SDS011;34959;49.310;8.646;2022-11-25T07:07:06;3.00;;;1.30;;
49139;SDS011;34959;49.310;8.646;2022-11-25T07:09:31;3.42;;;1.27;;
49139;SDS011;34959;49.310;8.646;2022-11-25T07:11:57;3.53;;;1.38;;
49139;SDS011;34959;49.310;8.646;2022-11-25T07:14:23;1.77;;;1.15;;
49139;SDS011;34959;49.310;8.646;2022-11-25T07:16:48;3.05;;;1.23;;
49139;SDS011;34959;49.310;8.646;2022-11-25T07:19:14;2.35;;;1.40;;
49139;SDS011;34959;49.310;8.646;2022-11-25T07:21:41;5.65;;;2.10;;
49139;SDS011;34959;49.310;8.646;2022-11-25T07:24:09;8.50;;;1.65;;
49139;SDS011;34959;49.310;8.646;2022-11-25T07:26:37;2.85;;;1.50;;
49139;SDS011;34959;49.310;8.646;2022-11-25T07:29:06;6.38;;;1.40;;
49139;SDS011;34959;49.310;8.646;2022-11-25T07:31:34;3.60;;;1.40;;
49139;SDS011;34959;49.310;8.646;2022-11-25T07:34:12;11.48;;;1.27;;
49139;SDS011;34959;49.310;8.646;2022-11-25T07:36:38;3.08;;;1.40;;
49139;SDS011;34959;49.310;8.646;2022-11-25T07:39:06;2.03;;;1.10;;
49139;SDS011;34959;49.310;8.646;2022-11-25T07:41:33;4.22;;;1.23;;
49139;SDS011;34959;49.310;8.646;2022-11-25T07:43:59;2.75;;;1.30;;
49139;SDS011;34959;49.310;8.646;2022-11-25T07:46:27;3.95;;;1.20;;
49139;SDS011;34959;49.310;8.646;2022-11-25T07:48:54;2.75;;;1.50;;
49139;SDS011;34959;49.310;8.646;2022-11-25T07:51:22;3.15;;;1.20;;
49139;SDS011;34959;49.310;8.646;2022-11-25T07:53:48;1.98;;;1.20;;
49139;SDS011;34959;49.310;8.646;2022-11-25T07:56:14;2.50;;;0.93;;
49139;SDS011;34959;49.310;8.646;2022-11-25T07:58:40;1.60;;;1.05;;
49139;SDS011;34959;49.310;8.646;2022-11-25T08:01:07;3.15;;;1.00;;
49139;SDS011;34959;49.310;8.646;2022-11-25T08:03:34;1.40;;;1.02;;
49139;SDS011;34959;49.310;8.646;2022-11-25T08:06:05;1.80;;;1.17;;
49139;SDS011;34959;49.310;8.646;2022-11-25T08:08:32;2.50;;;1.13;;
49139;SDS011;34959;49.310;8.646;2022-11-25T08:10:58;2.20;;;1.40;;
49139;SDS011;34959;49.310;8.646;2022-11-25T08:13:23;3.03;;;1.10;;
49139;SDS011;34959;49.310;8.646;2022-11-25T08:15:49;1.95;;;1.10;;
49139;SDS011;34959;49.310;8.646;2022-11-25T08:18:15;4.63;;;1.30;;
49139;SDS011;34959;49.310;8.646;2022-11-25T08:20:41;3.72;;;1.20;;
49139;SDS011;34959;49.310;8.646;2022-11-25T08:23:06;2.53;;;1.38;;
49139;SDS011;34959;49.310;8.646;2022-11-25T08:25:32;4.10;;;1.38;;
49139;SDS011;34959;49.310;8.646;2022-11-25T08:27:57;3.78;;;1.20;;
49139;SDS011;34959;49.310;8.646;2022-11-25T08:30:23;3.67;;;1.35;;
49139;SDS011;34959;49.310;8.646;2022-11-25T08:32:50;2.60;;;1.20;;
49139;SDS011;34959;49.310;8.646;2022-11-25T08:35:15;2.38;;;1.23;;
49139;SDS011;34959;49.310;8.646;2022-11-25T08:37:41;2.78;;;1.00;;
49139;SDS011;34959;49.310;8.646;2022-11-25T08:40:06;2.35;;;1.13;;
49139;SDS011;34959;49.310;8.646;2022-11-25T08:42:32;3.63;;;1.30;;
49139;SDS011;34959;49.310;8.646;2022-11-25T08:44:58;2.58;;;1.05;;
49139;SDS011;34959;49.310;8.646;2022-11-25T08:47:24;2.33;;;1.05;;
49139;SDS011;34959;49.310;8.646;2022-11-25T08:49:53;3.10;;;1.20;;
49139;SDS011;34959;49.310;8.646;2022-11-25T08:52:19;2.92;;;1.33;;
49139;SDS011;34959;49.310;8.646;2022-11-25T08:54:45;1.70;;;1.17;;
49139;SDS011;34959;49.310;8.646;2022-11-25T08:57:11;2.85;;;1.23;;
49139;SDS011;34959;49.310;8.646;2022-11-25T08:59:36;3.80;;;1.20;;
49139;SDS011;34959;49.310;8.646;2022-11-25T09:02:03;3.88;;;1.38;;
49139;SDS011;34959;49.310;8.646;2022-11-25T09:04:29;4.93;;;1.40;;
49139;SDS011;34959;49.310;8.646;2022-11-25T09:06:55;4.13;;;1.50;;
49139;SDS011;34959;49.310;8.646;2022-11-25T09:09:20;3.80;;;1.20;;
49139;SDS011;34959;49.310;8.646;2022-11-25T09:11:45;3.08;;;1.20;;
49139;SDS011;34959;49.310;8.646;2022-11-25T09:14:11;1.95;;;1.10;;
49139;SDS011;34959;49.310;8.646;2022-11-25T09:16:36;2.75;;;1.23;;
49139;SDS011;34959;49.310;8.646;2022-11-25T09:19:02;2.15;;;1.15;;
49139;SDS011;34959;49.310;8.646;2022-11-25T09:21:28;5.28;;;1.30;;
49139;SDS011;34959;49.310;8.646;2022-11-25T09:23:53;2.28;;;1.10;;
49139;SDS011;34959;49.310;8.646;2022-11-25T09:26:23;5.78;;;1.10;;
49139;SDS011;34959;49.310;8.646;2022-11-25T09:28:53;3.53;;;1.50;;
49139;SDS011;34959;49.310;8.646;2022-11-25T09:31:19;3.13;;;1.33;;
49139;SDS011;34959;49.310;8.646;2022-11-25T09:33:45;3.50;;;1.30;;
49139;SDS011;34959;49.310;8.646;2022-11-25T09:36:11;2.10;;;1.05;;
49139;SDS011;34959;49.310;8.646;2022-11-25T09:38:37;1.58;;;0.95;;
49139;SDS011;34959;49.310;8.646;2022-11-25T09:49:23;3.53;;;1.40;;
49139;SDS011;34959;49.310;8.646;2022-11-25T09:57:35;1.95;;;1.15;;
49139;SDS011;34959;49.310;8.646;2022-11-25T10:02:41;3.80;;;1.25;;
49139;SDS011;34959;49.310;8.646;2022-11-25T10:05:17;3.42;;;1.67;;
49139;SDS011;34959;49.310;8.646;2022-11-25T10:07:52;3.45;;;1.25;;
49139;SDS011;34959;49.310;8.646;2022-11-25T10:10:24;1.98;;;1.10;;
49139;SDS011;34959;49.310;8.646;2022-11-25T10:12:52;2.83;;;1.50;;
49139;SDS011;34959;49.310;8.646;2022-11-25T10:15:22;2.80;;;1.40;;
49139;SDS011;34959;49.310;8.646;2022-11-25T10:17:52;2.80;;;1.40;;
49139;SDS011;34959;49.310;8.646;2022-11-25T10:25:43;8.70;;;4.40;;
49139;SDS011;34959;49.310;8.646;2022-11-25T10:28:17;5.97;;;3.10;;
49139;SDS011;34959;49.310;8.646;2022-11-25T10:30:46;6.70;;;2.90;;
49139;SDS011;34959;49.310;8.646;2022-11-25T10:33:21;7.03;;;3.17;;
49139;SDS011;34959;49.310;8.646;2022-11-25T10:35:58;5.97;;;3.00;;
49139;SDS011;34959;49.310;8.646;2022-11-25T10:38:26;4.68;;;3.05;;
49139;SDS011;34959;49.310;8.646;2022-11-25T10:40:56;5.73;;;3.03;;
49139;SDS011;34959;49.310;8.646;2022-11-25T10:43:25;6.10;;;2.90;;
49139;SDS011;34959;49.310;8.646;2022-11-25T10:45:57;6.53;;;3.13;;
49139;SDS011;34959;49.310;8.646;2022-11-25T10:51:38;5.40;;;3.17;;
49139;SDS011;34959;49.310;8.646;2022-11-25T10:54:17;6.20;;;3.40;;
49139;SDS011;34959;49.310;8.646;2022-11-25T10:56:51;5.45;;;2.85;;
49139;SDS011;34959;49.310;8.646;2022-11-25T10:59:31;5.18;;;2.80;;
49139;SDS011;34959;49.310;8.646;2022-11-25T11:04:47;6.20;;;3.08;;
49139;SDS011;34959;49.310;8.646;2022-11-25T11:07:15;5.40;;;2.80;;
49139;SDS011;34959;49.310;8.646;2022-11-25T11:09:41;6.72;;;2.78;;
49139;SDS011;34959;49.310;8.646;2022-11-25T11:12:28;6.07;;;2.63;;
49139;SDS011;34959;49.310;8.646;2022-11-25T11:14:53;6.13;;;2.67;;
49139;SDS011;34959;49.310;8.646;2022-11-25T11:17:39;5.20;;;2.60;;
49139;SDS011;34959;49.310;8.646;2022-11-25T11:22:30;7.43;;;3.35;;
49139;SDS011;34959;49.310;8.646;2022-11-25T11:25:04;7.93;;;3.58;;
49139;SDS011;34959;49.310;8.646;2022-11-25T11:27:37;6.57;;;2.70;;
49139;SDS011;34959;49.310;8.646;2022-11-25T11:30:16;6.57;;;2.95;;
49139;SDS011;34959;49.310;8.646;2022-11-25T11:32:45;6.60;;;2.45;;
49139;SDS011;34959;49.310;8.646;2022-11-25T11:35:24;6.82;;;2.67;;
49139;SDS011;34959;49.310;8.646;2022-11-25T11:38:19;4.00;;;2.70;;
49139;SDS011;34959;49.310;8.646;2022-11-25T11:40:48;5.70;;;2.72;;
49139;SDS011;34959;49.310;8.646;2022-11-25T11:48:39;5.72;;;2.80;;
49139;SDS011;34959;49.310;8.646;2022-11-25T11:51:56;4.60;;;2.80;;
49139;SDS011;34959;49.310;8.646;2022-11-25T11:56:42;4.07;;;2.60;;
49139;SDS011;34959;49.310;8.646;2022-11-25T12:10:35;6.38;;;2.40;;
49139;SDS011;34959;49.310;8.646;2022-11-25T12:18:40;5.00;;;2.55;;
49139;SDS011;34959;49.310;8.646;2022-11-25T12:24:03;7.28;;;2.95;;
49139;SDS011;34959;49.310;8.646;2022-11-25T12:29:30;5.80;;;2.33;;
49139;SDS011;34959;49.310;8.646;2022-11-25T12:38:13;6.32;;;2.42;;
49139;SDS011;34959;49.310;8.646;2022-11-25T12:43:26;5.90;;;2.55;;
49139;SDS011;34959;49.310;8.646;2022-11-25T12:46:18;6.30;;;2.40;;
49139;SDS011;34959;49.310;8.646;2022-11-25T12:48:47;4.68;;;2.08;;
49139;SDS011;34959;49.310;8.646;2022-11-25T12:54:00;5.90;;;2.42;;
49139;SDS011;34959;49.310;8.646;2022-11-25T12:56:30;4.95;;;2.38;;
49139;SDS011;34959;49.310;8.646;2022-11-25T12:59:26;3.88;;;2.40;;
49139;SDS011;34959;49.310;8.646;2022-11-25T13:08:05;5.38;;;2.95;;
49139;SDS011;34959;49.310;8.646;2022-11-25T13:13:44;4.38;;;2.20;;
49139;SDS011;34959;49.310;8.646;2022-11-25T13:16:12;4.90;;;2.05;;
49139;SDS011;34959;49.310;8.646;2022-11-25T13:18:41;5.95;;;2.58;;
49139;SDS011;34959;49.310;8.646;2022-11-25T13:21:12;5.15;;;2.35;;
49139;SDS011;34959;49.310;8.646;2022-11-25T13:23:59;6.00;;;2.38;;
49139;SDS011;34959;49.310;8.646;2022-11-25T13:29:05;3.33;;;1.92;;
49139;SDS011;34959;49.310;8.646;2022-11-25T13:31:55;8.82;;;2.20;;
49139;SDS011;34959;49.310;8.646;2022-11-25T13:34:39;4.60;;;2.05;;
49139;SDS011;34959;49.310;8.646;2022-11-25T13:40:18;4.40;;;1.92;;
49139;SDS011;34959;49.310;8.646;2022-11-25T13:42:44;5.97;;;2.53;;
49139;SDS011;34959;49.310;8.646;2022-11-25T13:45:23;6.05;;;2.20;;
49139;SDS011;34959;49.310;8.646;2022-11-25T13:48:03;3.92;;;2.25;;
49139;SDS011;34959;49.310;8.646;2022-11-25T13:50:29;3.33;;;2.08;;
49139;SDS011;34959;49.310;8.646;2022-11-25T13:53:02;4.20;;;2.15;;
49139;SDS011;34959;49.310;8.646;2022-11-25T13:55:39;3.63;;;2.17;;
49139;SDS011;34959;49.310;8.646;2022-11-25T14:24:39;3.88;;;2.13;;
49139;SDS011;34959;49.310;8.646;2022-11-25T14:27:12;5.65;;;2.50;;
49139;SDS011;34959;49.310;8.646;2022-11-25T14:29:49;17.52;;;3.92;;
49139;SDS011;34959;49.310;8.646;2022-11-25T14:32:21;14.52;;;3.08;;
49139;SDS011;34959;49.310;8.646;2022-11-25T14:34:58;8.52;;;2.45;;
49139;SDS011;34959;49.310;8.646;2022-11-25T14:40:17;10.02;;;2.40;;
49139;SDS011;34959;49.310;8.646;2022-11-25T14:42:46;12.00;;;2.97;;
49139;SDS011;34959;49.310;8.646;2022-11-25T14:45:22;8.63;;;2.38;;
49139;SDS011;34959;49.310;8.646;2022-11-25T14:47:54;4.97;;;2.35;;
49139;SDS011;34959;49.310;8.646;2022-11-25T14:50:20;5.05;;;2.42;;
49139;SDS011;34959;49.310;8.646;2022-11-25T14:52:46;6.35;;;2.20;;
49139;SDS011;34959;49.310;8.646;2022-11-25T14:55:13;7.47;;;2.67;;
49139;SDS011;34959;49.310;8.646;2022-11-25T14:57:48;5.90;;;2.20;;
49139;SDS011;34959;49.310;8.646;2022-11-25T15:00:14;5.32;;;2.13;;
49139;SDS011;34959;49.310;8.646;2022-11-25T15:02:51;6.20;;;2.38;;
49139;SDS011;34959;49.310;8.646;2022-11-25T15:05:24;6.47;;;2.50;;
49139;SDS011;34959;49.310;8.646;2022-11-25T15:08:10;4.63;;;2.00;;
49139;SDS011;34959;49.310;8.646;2022-11-25T15:13:26;7.85;;;2.53;;
49139;SDS011;34959;49.310;8.646;2022-11-25T15:16:11;5.72;;;2.65;;
49139;SDS011;34959;49.310;8.646;2022-11-25T15:18:45;4.13;;;1.98;;
49139;SDS011;34959;49.310;8.646;2022-11-25T15:21:12;4.95;;;2.15;;
49139;SDS011;34959;49.310;8.646;2022-11-25T15:23:39;6.93;;;2.25;;
49139;SDS011;34959;49.310;8.646;2022-11-25T15:26:12;4.68;;;2.28;;
49139;SDS011;34959;49.310;8.646;2022-11-25T15:28:41;4.60;;;2.42;;
49139;SDS011;34959;49.310;8.646;2022-11-25T15:31:08;3.60;;;2.00;;
49139;SDS011;34959;49.310;8.646;2022-11-25T15:33:34;5.80;;;2.17;;
49139;SDS011;34959;49.310;8.646;2022-11-25T15:36:01;3.75;;;1.70;;
49139;SDS011;34959;49.310;8.646;2022-11-25T15:40:58;6.57;;;2.53;;
49139;SDS011;34959;49.310;8.646;2022-11-25T15:43:24;5.47;;;2.33;;
49139;SDS011;34959;49.310;8.646;2022-11-25T15:45:53;4.40;;;2.20;;
49139;SDS011;34959;49.310;8.646;2022-11-25T15:53:39;4.88;;;2.15;;
49139;SDS011;34959;49.310;8.646;2022-11-25T15:56:08;3.78;;;1.83;;
49139;SDS011;34959;49.310;8.646;2022-11-25T15:58:35;4.63;;;2.00;;
49139;SDS011;34959;49.310;8.646;2022-11-25T16:01:05;4.07;;;2.20;;
49139;SDS011;34959;49.310;8.646;2022-11-25T16:03:39;4.57;;;2.10;;
49139;SDS011;34959;49.310;8.646;2022-11-25T16:06:21;6.28;;;2.10;;
49139;SDS011;34959;49.310;8.646;2022-11-25T16:08:55;4.03;;;1.88;;
49139;SDS011;34959;49.310;8.646;2022-11-25T16:11:25;3.88;;;2.33;;
49139;SDS011;34959;49.310;8.646;2022-11-25T16:13:54;4.88;;;2.00;;
49139;SDS011;34959;49.310;8.646;2022-11-25T16:16:24;3.47;;;2.00;;
49139;SDS011;34959;49.310;8.646;2022-11-25T16:26:38;3.00;;;1.70;;
49139;SDS011;34959;49.310;8.646;2022-11-25T16:29:16;3.33;;;1.90;;
49139;SDS011;34959;49.310;8.646;2022-11-25T16:31:42;3.65;;;1.90;;
49139;SDS011;34959;49.310;8.646;2022-11-25T16:34:12;3.85;;;2.05;;
49139;SDS011;34959;49.310;8.646;2022-11-25T16:36:41;3.13;;;1.75;;
49139;SDS011;34959;49.310;8.646;2022-11-25T16:39:07;2.90;;;1.75;;
49139;SDS011;34959;49.310;8.646;2022-11-25T16:41:32;4.45;;;1.98;;
49139;SDS011;34959;49.310;8.646;2022-11-25T16:43:59;3.55;;;1.80;;
49139;SDS011;34959;49.310;8.646;2022-11-25T16:46:25;4.38;;;1.95;;
49139;SDS011;34959;49.310;8.646;2022-11-25T16:48:50;3.55;;;1.75;;
49139;SDS011;34959;49.310;8.646;2022-11-25T16:51:20;5.68;;;2.00;;
49139;SDS011;34959;49.310;8.646;2022-11-25T16:53:46;3.05;;;1.85;;
49139;SDS011;34959;49.310;8.646;2022-11-25T16:56:13;3.13;;;1.90;;
49139;SDS011;34959;49.310;8.646;2022-11-25T16:58:41;4.85;;;1.83;;
49139;SDS011;34959;49.310;8.646;2022-11-25T17:01:10;4.00;;;1.95;;
49139;SDS011;34959;49.310;8.646;2022-11-25T17:03:38;3.30;;;1.85;;
49139;SDS011;34959;49.310;8.646;2022-11-25T17:06:09;3.08;;;1.63;;
49139;SDS011;34959;49.310;8.646;2022-11-25T17:08:43;3.67;;;2.17;;
49139;SDS011;34959;49.310;8.646;2022-11-25T17:14:12;4.80;;;2.28;;
49139;SDS011;34959;49.310;8.646;2022-11-25T17:16:42;3.13;;;1.85;;
49139;SDS011;34959;49.310;8.646;2022-11-25T17:19:08;4.32;;;2.05;;
49139;SDS011;34959;49.310;8.646;2022-11-25T17:21:36;3.08;;;1.83;;